sensor_id;sensor_type;location;lat;lon;timestamp;pressure;altitude;pressure_sealevel;temperature;humidity
60920;BME280;59039;52.108;19.942;2023-04-26T00:01:30;99947.98;;;8.66;70.73
60920;BME280;59039;52.108;19.942;2023-04-26T00:04:37;99948.39;;;8.62;70.63
60920;BME280;59039;52.108;19.942;2023-04-26T00:07:42;99950.78;;;8.58;70.66
60920;BME280;59039;52.108;19.942;2023-04-26T00:13:37;99955.56;;;8.52;70.81
60920;BME280;59039;52.108;19.942;2023-04-26T00:18:50;99958.29;;;8.42;70.89
60920;BME280;59039;52.108;19.942;2023-04-26T00:24:37;99956.28;;;8.31;71.13
60920;BME280;59039;52.108;19.942;2023-04-26T00:27:25;99960.16;;;8.25;70.97
60920;BME280;59039;52.108;19.942;2023-04-26T00:30:31;99957.92;;;8.18;70.32
60920;BME280;59039;52.108;19.942;2023-04-26T00:33:30;99961.60;;;8.12;69.76
60920;BME280;59039;52.108;19.942;2023-04-26T00:36:28;99970.67;;;8.06;69.12
60920;BME280;59039;52.108;19.942;2023-04-26T00:39:23;99975.27;;;8.00;68.74
60920;BME280;59039;52.108;19.942;2023-04-26T00:41:58;99976.02;;;7.92;67.82
60920;BME280;59039;52.108;19.942;2023-04-26T00:44:49;99974.67;;;7.85;67.52
60920;BME280;59039;52.108;19.942;2023-04-26T00:47:24;99980.48;;;7.77;67.51
60920;BME280;59039;52.108;19.942;2023-04-26T00:53:08;99981.66;;;7.67;67.31
60920;BME280;59039;52.108;19.942;2023-04-26T00:56:06;99982.53;;;7.62;67.16
60920;BME280;59039;52.108;19.942;2023-04-26T00:59:12;99984.52;;;7.56;66.77
60920;BME280;59039;52.108;19.942;2023-04-26T01:02:17;99984.77;;;7.49;66.61
60920;BME280;59039;52.108;19.942;2023-04-26T01:07:48;99995.50;;;7.39;66.41
60920;BME280;59039;52.108;19.942;2023-04-26T01:10:48;99996.91;;;7.34;66.34
60920;BME280;59039;52.108;19.942;2023-04-26T01:13:36;99999.33;;;7.29;66.07
60920;BME280;59039;52.108;19.942;2023-04-26T01:19:45;99991.64;;;7.11;65.67
60920;BME280;59039;52.108;19.942;2023-04-26T01:22:31;99992.58;;;6.99;65.44
60920;BME280;59039;52.108;19.942;2023-04-26T01:25:15;99992.45;;;6.90;65.94
60920;BME280;59039;52.108;19.942;2023-04-26T01:28:04;99996.04;;;6.83;66.07
60920;BME280;59039;52.108;19.942;2023-04-26T01:33:54;100001.86;;;6.73;66.37
60920;BME280;59039;52.108;19.942;2023-04-26T01:39:33;100009.75;;;6.61;66.63
60920;BME280;59039;52.108;19.942;2023-04-26T01:42:32;100010.93;;;6.58;66.80
60920;BME280;59039;52.108;19.942;2023-04-26T01:45:17;100016.47;;;6.54;66.89
60920;BME280;59039;52.108;19.942;2023-04-26T01:53:34;100015.48;;;6.43;67.15
60920;BME280;59039;52.108;19.942;2023-04-26T01:56:05;100017.00;;;6.38;67.11
60920;BME280;59039;52.108;19.942;2023-04-26T01:58:52;100015.66;;;6.35;67.11
60920;BME280;59039;52.108;19.942;2023-04-26T02:01:29;100020.52;;;6.29;67.19
60920;BME280;59039;52.108;19.942;2023-04-26T02:03:56;100018.53;;;6.23;67.17
60920;BME280;59039;52.108;19.942;2023-04-26T02:07:03;100017.33;;;6.16;67.37
60920;BME280;59039;52.108;19.942;2023-04-26T02:10:07;100017.98;;;6.09;67.47
60920;BME280;59039;52.108;19.942;2023-04-26T02:12:46;100018.94;;;6.02;67.50
60920;BME280;59039;52.108;19.942;2023-04-26T02:15:14;100016.39;;;5.98;67.39
60920;BME280;59039;52.108;19.942;2023-04-26T02:17:42;100014.34;;;5.95;67.43
60920;BME280;59039;52.108;19.942;2023-04-26T02:20:29;100014.44;;;5.92;67.55
60920;BME280;59039;52.108;19.942;2023-04-26T02:26:05;100014.86;;;5.82;67.64
60920;BME280;59039;52.108;19.942;2023-04-26T02:31:13;100009.83;;;5.74;67.67
60920;BME280;59039;52.108;19.942;2023-04-26T02:36:36;100013.70;;;5.71;67.71
60920;BME280;59039;52.108;19.942;2023-04-26T02:39:07;100014.17;;;5.68;67.92
60920;BME280;59039;52.108;19.942;2023-04-26T02:50:07;100013.99;;;5.58;67.91
60920;BME280;59039;52.108;19.942;2023-04-26T02:55:49;100014.39;;;5.53;68.22
60920;BME280;59039;52.108;19.942;2023-04-26T02:58:35;100012.75;;;5.47;68.44
60920;BME280;59039;52.108;19.942;2023-04-26T03:04:08;100014.63;;;5.37;68.46
60920;BME280;59039;52.108;19.942;2023-04-26T03:06:42;100014.08;;;5.36;68.50
60920;BME280;59039;52.108;19.942;2023-04-26T03:09:35;100017.80;;;5.34;68.77
60920;BME280;59039;52.108;19.942;2023-04-26T03:12:21;100022.63;;;5.32;68.64
60920;BME280;59039;52.108;19.942;2023-04-26T03:15:10;100026.27;;;5.28;69.00
60920;BME280;59039;52.108;19.942;2023-04-26T03:17:58;100025.59;;;5.23;68.83
60920;BME280;59039;52.108;19.942;2023-04-26T03:23:40;100036.20;;;5.16;69.17
60920;BME280;59039;52.108;19.942;2023-04-26T03:28:57;100038.70;;;5.10;69.10
60920;BME280;59039;52.108;19.942;2023-04-26T03:31:46;100044.27;;;5.08;69.45
60920;BME280;59039;52.108;19.942;2023-04-26T03:37:25;100049.95;;;5.05;69.15
60920;BME280;59039;52.108;19.942;2023-04-26T03:40:15;100055.14;;;5.02;69.71
60920;BME280;59039;52.108;19.942;2023-04-26T03:43:00;100057.53;;;4.97;70.07
60920;BME280;59039;52.108;19.942;2023-04-26T03:45:59;100061.32;;;4.93;70.12
60920;BME280;59039;52.108;19.942;2023-04-26T03:51:28;100061.77;;;4.87;70.39
60920;BME280;59039;52.108;19.942;2023-04-26T03:57:15;100060.30;;;4.92;70.70
60920;BME280;59039;52.108;19.942;2023-04-26T04:00:11;100065.49;;;4.97;70.49
60920;BME280;59039;52.108;19.942;2023-04-26T04:02:49;100066.39;;;5.01;70.83
60920;BME280;59039;52.108;19.942;2023-04-26T04:05:56;100065.05;;;5.04;70.49
60920;BME280;59039;52.108;19.942;2023-04-26T04:09:01;100067.77;;;5.08;70.77
60920;BME280;59039;52.108;19.942;2023-04-26T04:11:31;100068.89;;;5.12;71.05
60920;BME280;59039;52.108;19.942;2023-04-26T04:14:25;100071.39;;;5.14;70.80
60920;BME280;59039;52.108;19.942;2023-04-26T04:17:16;100074.66;;;5.20;70.87
60920;BME280;59039;52.108;19.942;2023-04-26T04:22:57;100073.33;;;5.34;70.49
60920;BME280;59039;52.108;19.942;2023-04-26T04:25:26;100071.20;;;5.42;70.56
60920;BME280;59039;52.108;19.942;2023-04-26T04:33:55;100076.79;;;5.78;69.82
60920;BME280;59039;52.108;19.942;2023-04-26T04:37:02;100077.47;;;5.91;69.68
60920;BME280;59039;52.108;19.942;2023-04-26T04:39:50;100075.89;;;6.05;69.36
60920;BME280;59039;52.108;19.942;2023-04-26T04:42:38;100074.23;;;6.18;69.05
60920;BME280;59039;52.108;19.942;2023-04-26T04:45:44;100073.35;;;6.32;68.73
60920;BME280;59039;52.108;19.942;2023-04-26T04:48:40;100072.36;;;6.51;68.23
60920;BME280;59039;52.108;19.942;2023-04-26T04:51:17;100075.46;;;6.62;67.53
60920;BME280;59039;52.108;19.942;2023-04-26T05:02:06;100084.61;;;7.05;67.10
60920;BME280;59039;52.108;19.942;2023-04-26T05:04:54;100088.10;;;7.20;66.62
60920;BME280;59039;52.108;19.942;2023-04-26T05:07:22;100088.02;;;7.36;65.95
60920;BME280;59039;52.108;19.942;2023-04-26T05:09:53;100086.16;;;7.46;66.24
60920;BME280;59039;52.108;19.942;2023-04-26T05:12:42;100086.61;;;7.61;66.28
60920;BME280;59039;52.108;19.942;2023-04-26T05:15:21;100086.04;;;7.84;64.96
60920;BME280;59039;52.108;19.942;2023-04-26T05:18:11;100086.95;;;8.02;65.05
60920;BME280;59039;52.108;19.942;2023-04-26T05:21:03;100092.27;;;8.19;65.05
60920;BME280;59039;52.108;19.942;2023-04-26T05:23:59;100089.16;;;8.43;64.44
60920;BME280;59039;52.108;19.942;2023-04-26T05:26:27;100095.08;;;8.71;63.44
60920;BME280;59039;52.108;19.942;2023-04-26T05:29:09;100090.12;;;8.90;62.43
60920;BME280;59039;52.108;19.942;2023-04-26T05:32:05;100090.80;;;9.12;62.42
60920;BME280;59039;52.108;19.942;2023-04-26T05:34:32;100095.27;;;9.34;61.36
60920;BME280;59039;52.108;19.942;2023-04-26T05:36:57;100098.17;;;9.52;60.36
60920;BME280;59039;52.108;19.942;2023-04-26T05:42:40;100096.16;;;9.94;59.48
60920;BME280;59039;52.108;19.942;2023-04-26T05:47:57;100091.98;;;10.35;58.84
60920;BME280;59039;52.108;19.942;2023-04-26T05:50:28;100095.05;;;10.52;58.74
60920;BME280;59039;52.108;19.942;2023-04-26T05:53:17;100092.08;;;10.70;57.83
60920;BME280;59039;52.108;19.942;2023-04-26T05:56:06;100091.11;;;10.86;57.22
60920;BME280;59039;52.108;19.942;2023-04-26T05:58:33;100092.21;;;11.03;56.30
60920;BME280;59039;52.108;19.942;2023-04-26T06:01:13;100094.59;;;11.13;57.43
60920;BME280;59039;52.108;19.942;2023-04-26T06:03:50;100096.78;;;11.19;54.95
60920;BME280;59039;52.108;19.942;2023-04-26T06:06:25;100100.87;;;11.30;56.57
60920;BME280;59039;52.108;19.942;2023-04-26T06:09:16;100099.58;;;11.48;55.23
60920;BME280;59039;52.108;19.942;2023-04-26T06:12:02;100101.12;;;11.62;54.59
60920;BME280;59039;52.108;19.942;2023-04-26T06:14:27;100102.55;;;11.79;53.49
60920;BME280;59039;52.108;19.942;2023-04-26T06:17:23;100100.47;;;11.92;54.95
60920;BME280;59039;52.108;19.942;2023-04-26T06:20:09;100102.27;;;12.02;53.30
60920;BME280;59039;52.108;19.942;2023-04-26T06:22:52;100101.05;;;12.12;52.65
60920;BME280;59039;52.108;19.942;2023-04-26T06:28:22;100100.96;;;12.41;50.99
60920;BME280;59039;52.108;19.942;2023-04-26T06:30:53;100101.31;;;12.48;51.12
60920;BME280;59039;52.108;19.942;2023-04-26T06:36:37;100105.31;;;12.57;51.53
60920;BME280;59039;52.108;19.942;2023-04-26T06:39:06;100104.40;;;12.63;50.91
60920;BME280;59039;52.108;19.942;2023-04-26T06:41:39;100106.64;;;12.73;51.02
60920;BME280;59039;52.108;19.942;2023-04-26T06:44:16;100106.72;;;12.81;49.76
60920;BME280;59039;52.108;19.942;2023-04-26T06:46:47;100107.00;;;12.84;50.01
60920;BME280;59039;52.108;19.942;2023-04-26T06:49:25;100106.98;;;12.89;50.98
60920;BME280;59039;52.108;19.942;2023-04-26T06:52:01;100107.41;;;12.90;49.96
60920;BME280;59039;52.108;19.942;2023-04-26T06:54:36;100109.64;;;12.88;49.99
60920;BME280;59039;52.108;19.942;2023-04-26T06:57:13;100103.05;;;12.86;48.86
60920;BME280;59039;52.108;19.942;2023-04-26T06:59:42;100109.01;;;12.84;49.50
60920;BME280;59039;52.108;19.942;2023-04-26T07:02:07;100115.27;;;12.79;48.32
60920;BME280;59039;52.108;19.942;2023-04-26T07:04:32;100113.53;;;12.80;50.01
60920;BME280;59039;52.108;19.942;2023-04-26T07:06:58;100110.64;;;12.80;49.25
60920;BME280;59039;52.108;19.942;2023-04-26T07:09:23;100112.61;;;12.74;49.31
60920;BME280;59039;52.108;19.942;2023-04-26T07:11:49;100115.27;;;12.69;48.82
60920;BME280;59039;52.108;19.942;2023-04-26T07:14:14;100116.75;;;12.68;48.55
60920;BME280;59039;52.108;19.942;2023-04-26T07:16:49;100116.52;;;12.73;48.64
60920;BME280;59039;52.108;19.942;2023-04-26T07:19:37;100120.42;;;12.74;49.35
60920;BME280;59039;52.108;19.942;2023-04-26T07:22:03;100119.08;;;12.74;49.91
60920;BME280;59039;52.108;19.942;2023-04-26T07:24:44;100121.98;;;12.76;49.33
60920;BME280;59039;52.108;19.942;2023-04-26T07:27:19;100120.77;;;12.71;49.22
60920;BME280;59039;52.108;19.942;2023-04-26T07:29:55;100120.48;;;12.60;49.34
60920;BME280;59039;52.108;19.942;2023-04-26T07:35:13;100127.05;;;12.43;49.29
60920;BME280;59039;52.108;19.942;2023-04-26T07:37:38;100126.22;;;12.32;49.14
60920;BME280;59039;52.108;19.942;2023-04-26T07:43:30;100132.23;;;12.00;49.45
60920;BME280;59039;52.108;19.942;2023-04-26T07:45:58;100138.42;;;11.96;50.10
60920;BME280;59039;52.108;19.942;2023-04-26T07:48:47;100138.98;;;12.01;50.21
60920;BME280;59039;52.108;19.942;2023-04-26T07:51:17;100135.11;;;12.06;49.83
60920;BME280;59039;52.108;19.942;2023-04-26T07:53:42;100136.61;;;12.30;48.62
60920;BME280;59039;52.108;19.942;2023-04-26T07:56:11;100135.33;;;12.66;47.60
60920;BME280;59039;52.108;19.942;2023-04-26T07:58:52;100134.71;;;13.09;47.08
60920;BME280;59039;52.108;19.942;2023-04-26T08:01:20;100136.86;;;13.59;46.58
60920;BME280;59039;52.108;19.942;2023-04-26T08:03:46;100137.76;;;14.13;48.55
60920;BME280;59039;52.108;19.942;2023-04-26T08:06:14;100140.52;;;14.54;44.62
60920;BME280;59039;52.108;19.942;2023-04-26T08:09:02;100147.92;;;14.68;40.91
60920;BME280;59039;52.108;19.942;2023-04-26T08:11:49;100152.14;;;14.68;39.85
60920;BME280;59039;52.108;19.942;2023-04-26T08:14:37;100151.14;;;14.62;39.76
60920;BME280;59039;52.108;19.942;2023-04-26T08:17:01;100146.35;;;14.77;40.51
60920;BME280;59039;52.108;19.942;2023-04-26T08:19:32;100149.06;;;14.84;40.77
60920;BME280;59039;52.108;19.942;2023-04-26T08:21:58;100148.93;;;14.64;39.15
60920;BME280;59039;52.108;19.942;2023-04-26T08:24:23;100151.85;;;14.38;38.20
60920;BME280;59039;52.108;19.942;2023-04-26T08:27:07;100153.52;;;14.08;40.59
60920;BME280;59039;52.108;19.942;2023-04-26T08:29:36;100159.23;;;13.86;39.92
60920;BME280;59039;52.108;19.942;2023-04-26T08:32:04;100154.64;;;13.94;39.86
60920;BME280;59039;52.108;19.942;2023-04-26T08:34:50;100156.81;;;14.08;39.93
60920;BME280;59039;52.108;19.942;2023-04-26T08:39:53;100159.73;;;13.83;39.04
60920;BME280;59039;52.108;19.942;2023-04-26T08:42:26;100168.45;;;13.72;39.60
60920;BME280;59039;52.108;19.942;2023-04-26T08:45:13;100166.89;;;13.72;40.30
60920;BME280;59039;52.108;19.942;2023-04-26T08:48:15;100167.57;;;13.69;40.20
60920;BME280;59039;52.108;19.942;2023-04-26T08:50:44;100169.98;;;13.59;41.45
60920;BME280;59039;52.108;19.942;2023-04-26T08:58:38;100175.64;;;13.08;41.60
60920;BME280;59039;52.108;19.942;2023-04-26T09:01:17;100179.64;;;12.90;41.91
60920;BME280;59039;52.108;19.942;2023-04-26T09:03:55;100177.20;;;12.75;41.38
60920;BME280;59039;52.108;19.942;2023-04-26T09:09:01;100178.51;;;12.34;40.87
60920;BME280;59039;52.108;19.942;2023-04-26T09:11:53;100187.17;;;12.15;41.35
60920;BME280;59039;52.108;19.942;2023-04-26T09:14:22;100190.56;;;11.91;41.07
60920;BME280;59039;52.108;19.942;2023-04-26T09:19:48;100196.00;;;11.53;41.67
60920;BME280;59039;52.108;19.942;2023-04-26T09:22:42;100200.30;;;11.38;42.44
60920;BME280;59039;52.108;19.942;2023-04-26T09:25:32;100206.21;;;11.24;42.52
60920;BME280;59039;52.108;19.942;2023-04-26T09:28:29;100204.95;;;11.12;42.83
60920;BME280;59039;52.108;19.942;2023-04-26T09:30:56;100202.98;;;10.99;43.60
60920;BME280;59039;52.108;19.942;2023-04-26T09:33:24;100192.89;;;10.92;43.54
60920;BME280;59039;52.108;19.942;2023-04-26T09:36:10;100197.78;;;10.91;43.84
60920;BME280;59039;52.108;19.942;2023-04-26T09:39:11;100201.55;;;10.89;44.19
60920;BME280;59039;52.108;19.942;2023-04-26T09:41:44;100197.02;;;10.91;45.29
60920;BME280;59039;52.108;19.942;2023-04-26T09:44:23;100196.46;;;10.96;45.32
60920;BME280;59039;52.108;19.942;2023-04-26T09:47:07;100195.98;;;11.01;44.44
60920;BME280;59039;52.108;19.942;2023-04-26T09:49:53;100196.59;;;10.98;43.29
60920;BME280;59039;52.108;19.942;2023-04-26T09:52:24;100202.38;;;11.00;44.38
60920;BME280;59039;52.108;19.942;2023-04-26T09:57:32;100205.58;;;10.99;43.13
60920;BME280;59039;52.108;19.942;2023-04-26T10:00:39;100204.67;;;10.95;43.21
60920;BME280;59039;52.108;19.942;2023-04-26T10:03:27;100209.58;;;10.92;43.57
60920;BME280;59039;52.108;19.942;2023-04-26T10:06:14;100211.90;;;10.89;44.41
60920;BME280;59039;52.108;19.942;2023-04-26T10:08:52;100211.65;;;10.80;43.95
60920;BME280;59039;52.108;19.942;2023-04-26T10:11:59;100215.65;;;10.72;44.57
60920;BME280;59039;52.108;19.942;2023-04-26T10:14:55;100213.77;;;10.64;43.92
60920;BME280;59039;52.108;19.942;2023-04-26T10:17:26;100223.44;;;10.51;42.81
60920;BME280;59039;52.108;19.942;2023-04-26T10:20:32;100223.29;;;10.39;43.43
60920;BME280;59039;52.108;19.942;2023-04-26T10:22:58;100228.29;;;10.20;44.27
60920;BME280;59039;52.108;19.942;2023-04-26T10:25:59;100225.22;;;10.11;44.61
60920;BME280;59039;52.108;19.942;2023-04-26T10:34:19;100227.45;;;9.82;44.34
60920;BME280;59039;52.108;19.942;2023-04-26T10:40:22;100231.48;;;9.70;44.71
60920;BME280;59039;52.108;19.942;2023-04-26T10:42:50;100235.71;;;9.68;46.08
60920;BME280;59039;52.108;19.942;2023-04-26T10:45:28;100240.08;;;9.67;45.85
60920;BME280;59039;52.108;19.942;2023-04-26T11:02:02;100235.81;;;9.77;46.09
60920;BME280;59039;52.108;19.942;2023-04-26T11:04:50;100231.48;;;9.85;46.39
60920;BME280;59039;52.108;19.942;2023-04-26T11:07:36;100235.80;;;9.90;45.41
60920;BME280;59039;52.108;19.942;2023-04-26T11:10:32;100236.16;;;9.92;44.84
60920;BME280;59039;52.108;19.942;2023-04-26T11:13:05;100240.11;;;9.93;45.21
60920;BME280;59039;52.108;19.942;2023-04-26T11:15:58;100237.80;;;9.90;44.71
60920;BME280;59039;52.108;19.942;2023-04-26T11:21:41;100239.30;;;9.90;44.99
60920;BME280;59039;52.108;19.942;2023-04-26T11:24:14;100240.02;;;9.95;45.72
60920;BME280;59039;52.108;19.942;2023-04-26T11:27:00;100234.28;;;10.01;45.35
60920;BME280;59039;52.108;19.942;2023-04-26T11:30:01;100233.55;;;10.07;44.23
60920;BME280;59039;52.108;19.942;2023-04-26T11:32:46;100244.20;;;10.11;44.11
60920;BME280;59039;52.108;19.942;2023-04-26T11:35:42;100242.64;;;10.10;44.57
60920;BME280;59039;52.108;19.942;2023-04-26T11:38:31;100255.13;;;10.10;44.80
60920;BME280;59039;52.108;19.942;2023-04-26T11:41:02;100257.96;;;10.11;45.62
60920;BME280;59039;52.108;19.942;2023-04-26T11:47:12;100259.27;;;10.09;45.56
60920;BME280;59039;52.108;19.942;2023-04-26T11:49:41;100256.77;;;10.10;45.46
60920;BME280;59039;52.108;19.942;2023-04-26T11:52:30;100255.77;;;10.15;45.29
60920;BME280;59039;52.108;19.942;2023-04-26T11:55:35;100257.58;;;10.18;45.45
60920;BME280;59039;52.108;19.942;2023-04-26T11:58:08;100252.84;;;10.20;44.74
60920;BME280;59039;52.108;19.942;2023-04-26T12:00:34;100255.56;;;10.20;45.13
60920;BME280;59039;52.108;19.942;2023-04-26T12:03:08;100253.98;;;10.21;45.96
60920;BME280;59039;52.108;19.942;2023-04-26T12:09:12;100264.66;;;10.20;44.24
60920;BME280;59039;52.108;19.942;2023-04-26T12:12:07;100265.30;;;10.21;45.44
60920;BME280;59039;52.108;19.942;2023-04-26T12:14:55;100263.58;;;10.21;43.76
60920;BME280;59039;52.108;19.942;2023-04-26T12:17:27;100267.02;;;10.22;42.70
60920;BME280;59039;52.108;19.942;2023-04-26T12:20:07;100266.23;;;10.22;42.79
60920;BME280;59039;52.108;19.942;2023-04-26T12:25:57;100269.06;;;10.23;43.27
60920;BME280;59039;52.108;19.942;2023-04-26T12:28:42;100268.18;;;10.22;42.66
60920;BME280;59039;52.108;19.942;2023-04-26T12:31:18;100269.41;;;10.18;41.57
60920;BME280;59039;52.108;19.942;2023-04-26T12:34:04;100272.98;;;10.13;42.62
60920;BME280;59039;52.108;19.942;2023-04-26T12:36:34;100268.52;;;10.12;42.85
60920;BME280;59039;52.108;19.942;2023-04-26T12:39:15;100266.73;;;10.13;42.07
60920;BME280;59039;52.108;19.942;2023-04-26T12:41:58;100269.80;;;10.19;42.41
60920;BME280;59039;52.108;19.942;2023-04-26T12:44:29;100279.48;;;10.23;41.94
60920;BME280;59039;52.108;19.942;2023-04-26T12:47:05;100280.46;;;10.27;41.61
60920;BME280;59039;52.108;19.942;2023-04-26T12:49:30;100278.20;;;10.28;41.42
60920;BME280;59039;52.108;19.942;2023-04-26T12:55:00;100279.84;;;10.31;41.55
60920;BME280;59039;52.108;19.942;2023-04-26T12:57:25;100281.34;;;10.31;40.67
60920;BME280;59039;52.108;19.942;2023-04-26T12:59:50;100283.10;;;10.31;42.15
60920;BME280;59039;52.108;19.942;2023-04-26T13:02:36;100283.59;;;10.32;41.35
60920;BME280;59039;52.108;19.942;2023-04-26T13:05:26;100289.79;;;10.29;40.95
60920;BME280;59039;52.108;19.942;2023-04-26T13:08:15;100290.70;;;10.25;40.81
60920;BME280;59039;52.108;19.942;2023-04-26T13:13:51;100299.27;;;10.13;39.82
60920;BME280;59039;52.108;19.942;2023-04-26T13:16:18;100301.94;;;10.06;40.89
60920;BME280;59039;52.108;19.942;2023-04-26T13:18:48;100297.06;;;10.02;41.32
60920;BME280;59039;52.108;19.942;2023-04-26T13:21:44;100304.60;;;9.99;41.38
60920;BME280;59039;52.108;19.942;2023-04-26T13:24:14;100303.36;;;9.93;41.53
60920;BME280;59039;52.108;19.942;2023-04-26T13:26:48;100302.73;;;9.91;42.44
60920;BME280;59039;52.108;19.942;2023-04-26T13:29:22;100306.09;;;9.91;42.89
60920;BME280;59039;52.108;19.942;2023-04-26T13:31:53;100311.86;;;9.92;43.21
60920;BME280;59039;52.108;19.942;2023-04-26T13:34:29;100313.54;;;9.93;43.34
60920;BME280;59039;52.108;19.942;2023-04-26T13:37:19;100316.02;;;9.93;42.81
60920;BME280;59039;52.108;19.942;2023-04-26T13:40:07;100315.73;;;9.94;43.09
60920;BME280;59039;52.108;19.942;2023-04-26T13:45:17;100315.50;;;9.98;41.41
60920;BME280;59039;52.108;19.942;2023-04-26T13:47:51;100318.67;;;10.03;42.29
60920;BME280;59039;52.108;19.942;2023-04-26T13:50:22;100325.20;;;10.08;42.02
60920;BME280;59039;52.108;19.942;2023-04-26T13:52:48;100322.50;;;10.14;41.68
60920;BME280;59039;52.108;19.942;2023-04-26T13:55:35;100320.30;;;10.16;40.43
60920;BME280;59039;52.108;19.942;2023-04-26T13:58:01;100319.20;;;10.18;40.84
60920;BME280;59039;52.108;19.942;2023-04-26T14:00:35;100319.38;;;10.19;40.92
60920;BME280;59039;52.108;19.942;2023-04-26T14:03:00;100325.84;;;10.20;40.15
60920;BME280;59039;52.108;19.942;2023-04-26T14:05:29;100328.23;;;10.19;40.16
60920;BME280;59039;52.108;19.942;2023-04-26T14:07:56;100329.55;;;10.17;40.99
60920;BME280;59039;52.108;19.942;2023-04-26T14:10:35;100336.70;;;10.16;41.80
60920;BME280;59039;52.108;19.942;2023-04-26T14:13:03;100340.09;;;10.15;41.74
60920;BME280;59039;52.108;19.942;2023-04-26T14:15:35;100338.73;;;10.14;42.30
60920;BME280;59039;52.108;19.942;2023-04-26T14:18:03;100339.91;;;10.12;42.81
60920;BME280;59039;52.108;19.942;2023-04-26T14:20:28;100340.05;;;10.08;42.54
60920;BME280;59039;52.108;19.942;2023-04-26T14:23:09;100341.59;;;10.04;42.68
60920;BME280;59039;52.108;19.942;2023-04-26T14:25:40;100347.21;;;10.00;43.71
60920;BME280;59039;52.108;19.942;2023-04-26T14:28:08;100346.61;;;9.99;44.41
60920;BME280;59039;52.108;19.942;2023-04-26T14:30:37;100352.55;;;9.97;44.11
60920;BME280;59039;52.108;19.942;2023-04-26T14:33:13;100353.85;;;9.95;43.97
60920;BME280;59039;52.108;19.942;2023-04-26T14:35:47;100355.15;;;9.93;44.43
60920;BME280;59039;52.108;19.942;2023-04-26T14:38:16;100359.20;;;9.92;44.07
60920;BME280;59039;52.108;19.942;2023-04-26T14:40:42;100359.98;;;9.90;43.85
60920;BME280;59039;52.108;19.942;2023-04-26T14:43:28;100359.89;;;9.89;43.79
60920;BME280;59039;52.108;19.942;2023-04-26T14:45:53;100360.06;;;9.87;43.81
60920;BME280;59039;52.108;19.942;2023-04-26T14:48:36;100360.98;;;9.87;43.83
60920;BME280;59039;52.108;19.942;2023-04-26T14:51:25;100358.02;;;9.86;42.60
60920;BME280;59039;52.108;19.942;2023-04-26T14:54:35;100357.48;;;9.86;41.51
60920;BME280;59039;52.108;19.942;2023-04-26T14:56:59;100362.20;;;9.86;41.36
60920;BME280;59039;52.108;19.942;2023-04-26T15:02:53;100365.14;;;9.85;41.60
60920;BME280;59039;52.108;19.942;2023-04-26T15:05:18;100372.27;;;9.82;41.59
60920;BME280;59039;52.108;19.942;2023-04-26T15:07:52;100377.93;;;9.80;42.46
60920;BME280;59039;52.108;19.942;2023-04-26T15:10:58;100380.65;;;9.80;42.90
60920;BME280;59039;52.108;19.942;2023-04-26T15:13:23;100378.19;;;9.81;42.36
60920;BME280;59039;52.108;19.942;2023-04-26T15:16:29;100380.09;;;9.82;42.77
60920;BME280;59039;52.108;19.942;2023-04-26T15:22:23;100381.05;;;9.86;42.54
60920;BME280;59039;52.108;19.942;2023-04-26T15:24:51;100380.68;;;9.86;42.29
60920;BME280;59039;52.108;19.942;2023-04-26T15:27:57;100381.02;;;9.86;42.13
60920;BME280;59039;52.108;19.942;2023-04-26T15:30:50;100384.28;;;9.86;42.55
60920;BME280;59039;52.108;19.942;2023-04-26T15:36:57;100383.67;;;9.86;42.91
60920;BME280;59039;52.108;19.942;2023-04-26T15:42:23;100388.02;;;9.86;43.11
60920;BME280;59039;52.108;19.942;2023-04-26T15:45:22;100390.73;;;9.86;43.29
60920;BME280;59039;52.108;19.942;2023-04-26T15:51:27;100392.29;;;9.86;43.81
60920;BME280;59039;52.108;19.942;2023-04-26T15:54:18;100394.14;;;9.83;42.91
60920;BME280;59039;52.108;19.942;2023-04-26T15:56:43;100394.18;;;9.81;42.91
60920;BME280;59039;52.108;19.942;2023-04-26T15:59:50;100392.77;;;9.80;43.41
60920;BME280;59039;52.108;19.942;2023-04-26T16:05:18;100397.66;;;9.78;43.89
60920;BME280;59039;52.108;19.942;2023-04-26T16:08:04;100396.37;;;9.78;43.67
60920;BME280;59039;52.108;19.942;2023-04-26T16:11:10;100392.60;;;9.78;43.39
60920;BME280;59039;52.108;19.942;2023-04-26T16:14:16;100397.02;;;9.78;43.99
60920;BME280;59039;52.108;19.942;2023-04-26T16:17:02;100398.12;;;9.77;44.15
60920;BME280;59039;52.108;19.942;2023-04-26T16:19:47;100397.85;;;9.78;44.36
60920;BME280;59039;52.108;19.942;2023-04-26T16:28:19;100402.02;;;9.76;43.82
60920;BME280;59039;52.108;19.942;2023-04-26T16:31:04;100399.41;;;9.75;44.09
60920;BME280;59039;52.108;19.942;2023-04-26T16:33:49;100402.22;;;9.73;44.11
60920;BME280;59039;52.108;19.942;2023-04-26T16:36:15;100406.96;;;9.72;44.59
60920;BME280;59039;52.108;19.942;2023-04-26T16:41:37;100410.64;;;9.68;45.23
60920;BME280;59039;52.108;19.942;2023-04-26T16:44:27;100408.86;;;9.66;45.41
60920;BME280;59039;52.108;19.942;2023-04-26T16:50:00;100408.45;;;9.64;45.71
60920;BME280;59039;52.108;19.942;2023-04-26T16:52:57;100413.63;;;9.63;45.87
60920;BME280;59039;52.108;19.942;2023-04-26T16:55:34;100415.23;;;9.61;46.06
60920;BME280;59039;52.108;19.942;2023-04-26T16:58:20;100419.95;;;9.61;46.15
60920;BME280;59039;52.108;19.942;2023-04-26T17:01:06;100422.36;;;9.61;46.26
60920;BME280;59039;52.108;19.942;2023-04-26T17:03:50;100429.23;;;9.59;46.48
60920;BME280;59039;52.108;19.942;2023-04-26T17:06:39;100430.97;;;9.57;46.86
60920;BME280;59039;52.108;19.942;2023-04-26T17:09:33;100431.95;;;9.57;47.14